sensor_id;sensor_type;location;lat;lon;timestamp;pressure;altitude;pressure_sealevel;temperature;humidity
74631;BME280;63138;55.082;38.804;2023-10-13T08:36:37;99143.03;;;13.95;78.74
74631;BME280;63138;55.082;38.804;2023-10-13T08:39:04;99148.44;;;13.57;81.10
74631;BME280;63138;55.082;38.804;2023-10-13T08:41:50;99129.00;;;13.33;82.52
74631;BME280;63138;55.082;38.804;2023-10-13T08:44:44;99151.56;;;13.67;81.28
74631;BME280;63138;55.082;38.804;2023-10-13T08:47:18;99156.47;;;13.45;82.44
74631;BME280;63138;55.082;38.804;2023-10-13T08:49:45;99163.97;;;14.02;80.11
74631;BME280;63138;55.082;38.804;2023-10-13T08:52:17;99175.94;;;14.01;78.42
74631;BME280;63138;55.082;38.804;2023-10-13T08:55:05;99169.88;;;13.99;79.67
74631;BME280;63138;55.082;38.804;2023-10-13T08:57:50;99169.19;;;13.65;79.80
74631;BME280;63138;55.082;38.804;2023-10-13T09:00:19;99176.00;;;14.26;78.67
74631;BME280;63138;55.082;38.804;2023-10-13T09:03:06;99186.66;;;14.98;74.13
74631;BME280;63138;55.082;38.804;2023-10-13T09:06:12;99190.31;;;14.91;72.18
74631;BME280;63138;55.082;38.804;2023-10-13T09:08:40;99198.84;;;14.77;68.73
74631;BME280;63138;55.082;38.804;2023-10-13T09:11:25;99194.31;;;14.57;67.99
74631;BME280;63138;55.082;38.804;2023-10-13T09:13:53;99188.78;;;14.70;67.61
74631;BME280;63138;55.082;38.804;2023-10-13T09:16:19;99197.72;;;14.14;69.55
74631;BME280;63138;55.082;38.804;2023-10-13T09:19:07;99211.84;;;14.04;69.58
74631;BME280;63138;55.082;38.804;2023-10-13T09:21:40;99216.63;;;13.57;71.08
74631;BME280;63138;55.082;38.804;2023-10-13T09:24:12;99193.81;;;13.18;72.94
74631;BME280;63138;55.082;38.804;2023-10-13T09:26:48;99213.06;;;13.56;73.26
74631;BME280;63138;55.082;38.804;2023-10-13T09:29:18;99222.78;;;13.06;74.86
74631;BME280;63138;55.082;38.804;2023-10-13T09:31:47;99234.69;;;13.18;75.09
74631;BME280;63138;55.082;38.804;2023-10-13T09:34:21;99235.91;;;13.62;75.23
74631;BME280;63138;55.082;38.804;2023-10-13T09:36:49;99224.94;;;13.82;75.13
74631;BME280;63138;55.082;38.804;2023-10-13T09:39:25;99231.75;;;14.11;73.59
74631;BME280;63138;55.082;38.804;2023-10-13T09:42:17;99247.31;;;14.49;72.63
74631;BME280;63138;55.082;38.804;2023-10-13T09:44:47;99243.22;;;14.33;70.96
74631;BME280;63138;55.082;38.804;2023-10-13T09:47:22;99248.28;;;13.71;71.36
74631;BME280;63138;55.082;38.804;2023-10-13T09:50:02;99252.13;;;14.15;70.12
74631;BME280;63138;55.082;38.804;2023-10-13T09:52:31;99249.00;;;14.50;69.50
74631;BME280;63138;55.082;38.804;2023-10-13T09:55:03;99234.44;;;14.25;67.75
74631;BME280;63138;55.082;38.804;2023-10-13T09:57:37;99251.66;;;14.25;68.26
74631;BME280;63138;55.082;38.804;2023-10-13T10:00:21;99259.13;;;14.43;68.73
74631;BME280;63138;55.082;38.804;2023-10-13T10:03:07;99263.25;;;14.52;66.04
74631;BME280;63138;55.082;38.804;2023-10-13T10:06:02;99265.97;;;14.21;66.51
74631;BME280;63138;55.082;38.804;2023-10-13T10:08:43;99262.88;;;13.97;65.73
74631;BME280;63138;55.082;38.804;2023-10-13T10:14:36;99260.66;;;14.26;64.82
74631;BME280;63138;55.082;38.804;2023-10-13T10:17:08;99260.53;;;14.07;62.92
74631;BME280;63138;55.082;38.804;2023-10-13T10:19:53;99271.94;;;13.98;62.05
74631;BME280;63138;55.082;38.804;2023-10-13T10:22:31;99276.16;;;13.80;61.91
74631;BME280;63138;55.082;38.804;2023-10-13T10:25:02;99282.91;;;13.77;63.14
74631;BME280;63138;55.082;38.804;2023-10-13T10:27:31;99300.53;;;13.68;64.21
74631;BME280;63138;55.082;38.804;2023-10-13T10:29:58;99289.81;;;13.73;64.74
74631;BME280;63138;55.082;38.804;2023-10-13T10:32:37;99299.28;;;13.64;65.74
74631;BME280;63138;55.082;38.804;2023-10-13T10:35:07;99285.44;;;13.66;64.22
74631;BME280;63138;55.082;38.804;2023-10-13T10:37:36;99295.06;;;13.82;64.06
74631;BME280;63138;55.082;38.804;2023-10-13T10:40:09;99305.16;;;13.61;64.83
74631;BME280;63138;55.082;38.804;2023-10-13T10:42:50;99309.78;;;13.74;65.25
74631;BME280;63138;55.082;38.804;2023-10-13T10:45:16;99301.34;;;13.82;64.60
74631;BME280;63138;55.082;38.804;2023-10-13T10:47:48;99296.97;;;13.74;64.76
74631;BME280;63138;55.082;38.804;2023-10-13T10:50:25;99310.38;;;13.83;64.90
74631;BME280;63138;55.082;38.804;2023-10-13T10:53:09;99315.25;;;13.67;64.43
74631;BME280;63138;55.082;38.804;2023-10-13T10:55:39;99316.47;;;13.71;64.34
74631;BME280;63138;55.082;38.804;2023-10-13T10:58:10;99323.22;;;13.55;63.39
74631;BME280;63138;55.082;38.804;2023-10-13T11:01:06;99339.38;;;13.44;64.49
74631;BME280;63138;55.082;38.804;2023-10-13T11:03:37;99329.91;;;13.26;64.41
74631;BME280;63138;55.082;38.804;2023-10-13T11:06:05;99346.25;;;13.19;64.36
74631;BME280;63138;55.082;38.804;2023-10-13T11:08:40;99337.22;;;13.12;64.46
74631;BME280;63138;55.082;38.804;2023-10-13T11:11:09;99346.66;;;12.96;64.53
74631;BME280;63138;55.082;38.804;2023-10-13T11:13:44;99350.22;;;12.97;64.86
74631;BME280;63138;55.082;38.804;2023-10-13T11:16:24;99359.88;;;13.19;64.65
74631;BME280;63138;55.082;38.804;2023-10-13T11:19:03;99349.19;;;13.05;63.81
74631;BME280;63138;55.082;38.804;2023-10-13T11:21:31;99360.31;;;13.10;64.37
74631;BME280;63138;55.082;38.804;2023-10-13T11:24:15;99354.66;;;13.25;64.66
74631;BME280;63138;55.082;38.804;2023-10-13T11:26:43;99355.91;;;13.15;65.36
74631;BME280;63138;55.082;38.804;2023-10-13T11:29:31;99355.03;;;12.95;65.76
74631;BME280;63138;55.082;38.804;2023-10-13T11:31:57;99352.91;;;12.77;66.41
74631;BME280;63138;55.082;38.804;2023-10-13T11:34:26;99364.75;;;12.56;67.90
74631;BME280;63138;55.082;38.804;2023-10-13T11:37:06;99354.47;;;12.45;68.77
74631;BME280;63138;55.082;38.804;2023-10-13T11:39:52;99365.28;;;12.31;69.81
74631;BME280;63138;55.082;38.804;2023-10-13T11:42:18;99374.50;;;12.37;70.20
74631;BME280;63138;55.082;38.804;2023-10-13T11:44:45;99370.41;;;12.54;70.36
74631;BME280;63138;55.082;38.804;2023-10-13T11:47:11;99374.63;;;12.63;70.36
74631;BME280;63138;55.082;38.804;2023-10-13T11:49:56;99372.78;;;12.71;68.46
74631;BME280;63138;55.082;38.804;2023-10-13T11:52:23;99379.50;;;12.81;68.52
74631;BME280;63138;55.082;38.804;2023-10-13T11:54:55;99385.22;;;12.93;66.93
74631;BME280;63138;55.082;38.804;2023-10-13T11:57:21;99385.00;;;13.01;67.46
74631;BME280;63138;55.082;38.804;2023-10-13T11:59:49;99386.16;;;12.66;67.11
74631;BME280;63138;55.082;38.804;2023-10-13T12:02:44;99386.94;;;12.53;68.28
74631;BME280;63138;55.082;38.804;2023-10-13T12:05:31;99392.94;;;12.35;67.86
74631;BME280;63138;55.082;38.804;2023-10-13T12:08:15;99401.28;;;12.27;68.42
74631;BME280;63138;55.082;38.804;2023-10-13T12:10:50;99390.13;;;12.15;68.73
74631;BME280;63138;55.082;38.804;2023-10-13T12:13:26;99407.88;;;12.11;69.41
74631;BME280;63138;55.082;38.804;2023-10-13T12:15:55;99413.34;;;12.11;69.10
74631;BME280;63138;55.082;38.804;2023-10-13T12:18:22;99407.63;;;12.05;68.72
74631;BME280;63138;55.082;38.804;2023-10-13T12:20:49;99416.09;;;12.17;69.14
74631;BME280;63138;55.082;38.804;2023-10-13T12:23:15;99406.88;;;12.18;68.71
74631;BME280;63138;55.082;38.804;2023-10-13T12:25:43;99400.81;;;12.16;69.20
74631;BME280;63138;55.082;38.804;2023-10-13T12:28:22;99401.03;;;12.21;69.33
74631;BME280;63138;55.082;38.804;2023-10-13T12:30:49;99423.69;;;12.29;69.83
74631;BME280;63138;55.082;38.804;2023-10-13T12:33:18;99415.97;;;12.32;69.53
74631;BME280;63138;55.082;38.804;2023-10-13T12:38:37;99420.78;;;12.37;68.46
74631;BME280;63138;55.082;38.804;2023-10-13T12:41:13;99425.59;;;12.35;68.33
74631;BME280;63138;55.082;38.804;2023-10-13T12:43:58;99430.22;;;12.34;66.73
74631;BME280;63138;55.082;38.804;2023-10-13T12:46:43;99423.06;;;12.27;65.74
74631;BME280;63138;55.082;38.804;2023-10-13T12:49:28;99417.97;;;12.17;65.08
74631;BME280;63138;55.082;38.804;2023-10-13T12:52:13;99423.47;;;12.23;65.69
74631;BME280;63138;55.082;38.804;2023-10-13T12:54:47;99413.41;;;12.24;65.54
74631;BME280;63138;55.082;38.804;2023-10-13T12:57:28;99420.34;;;12.27;65.91
74631;BME280;63138;55.082;38.804;2023-10-13T12:59:54;99419.91;;;12.23;66.56
74631;BME280;63138;55.082;38.804;2023-10-13T13:02:25;99430.19;;;12.28;67.12
74631;BME280;63138;55.082;38.804;2023-10-13T13:04:55;99423.25;;;12.25;66.64
74631;BME280;63138;55.082;38.804;2023-10-13T13:07:32;99428.25;;;12.21;66.94
74631;BME280;63138;55.082;38.804;2023-10-13T13:10:10;99429.72;;;12.17;66.26
74631;BME280;63138;55.082;38.804;2023-10-13T13:12:37;99446.88;;;12.18;66.25
74631;BME280;63138;55.082;38.804;2023-10-13T13:15:04;99446.88;;;12.18;66.59
74631;BME280;63138;55.082;38.804;2023-10-13T13:17:38;99444.34;;;12.16;66.53
74631;BME280;63138;55.082;38.804;2023-10-13T13:20:05;99447.25;;;12.15;66.28
74631;BME280;63138;55.082;38.804;2023-10-13T13:22:39;99448.53;;;12.12;66.47
74631;BME280;63138;55.082;38.804;2023-10-13T13:25:06;99449.53;;;12.11;67.23
74631;BME280;63138;55.082;38.804;2023-10-13T13:27:34;99462.97;;;12.13;67.18
74631;BME280;63138;55.082;38.804;2023-10-13T13:30:03;99459.78;;;12.09;67.68
74631;BME280;63138;55.082;38.804;2023-10-13T13:32:38;99458.09;;;12.08;67.68
74631;BME280;63138;55.082;38.804;2023-10-13T13:35:07;99459.53;;;12.04;67.87
74631;BME280;63138;55.082;38.804;2023-10-13T13:37:36;99468.09;;;12.01;68.16
74631;BME280;63138;55.082;38.804;2023-10-13T13:40:06;99473.94;;;11.98;67.98
74631;BME280;63138;55.082;38.804;2023-10-13T13:42:47;99472.00;;;11.92;68.28
74631;BME280;63138;55.082;38.804;2023-10-13T13:45:21;99478.31;;;11.92;67.78
74631;BME280;63138;55.082;38.804;2023-10-13T13:47:50;99489.72;;;11.88;68.24
74631;BME280;63138;55.082;38.804;2023-10-13T13:50:26;99489.47;;;11.82;68.77
74631;BME280;63138;55.082;38.804;2023-10-13T13:52:54;99495.50;;;11.78;69.18
74631;BME280;63138;55.082;38.804;2023-10-13T13:55:24;99501.72;;;11.72;70.06
74631;BME280;63138;55.082;38.804;2023-10-13T13:57:57;99497.44;;;11.62;70.45
74631;BME280;63138;55.082;38.804;2023-10-13T14:00:24;99503.06;;;11.61;71.62
74631;BME280;63138;55.082;38.804;2023-10-13T14:03:14;99509.13;;;11.56;71.99
74631;BME280;63138;55.082;38.804;2023-10-13T14:06:00;99501.44;;;11.45;73.46
74631;BME280;63138;55.082;38.804;2023-10-13T14:08:29;99506.84;;;11.38;74.31
74631;BME280;63138;55.082;38.804;2023-10-13T14:10:56;99512.38;;;11.30;75.03
74631;BME280;63138;55.082;38.804;2023-10-13T14:13:49;99517.09;;;11.21;75.85
74631;BME280;63138;55.082;38.804;2023-10-13T14:16:18;99524.31;;;11.14;76.61
74631;BME280;63138;55.082;38.804;2023-10-13T14:18:51;99512.25;;;11.02;77.55
74631;BME280;63138;55.082;38.804;2023-10-13T14:21:19;99518.63;;;10.94;78.88
74631;BME280;63138;55.082;38.804;2023-10-13T14:23:49;99519.78;;;10.85;79.59
74631;BME280;63138;55.082;38.804;2023-10-13T14:26:16;99526.63;;;10.81;79.94
74631;BME280;63138;55.082;38.804;2023-10-13T14:28:46;99539.63;;;10.70;80.56
74631;BME280;63138;55.082;38.804;2023-10-13T14:31:32;99532.63;;;10.61;81.39
74631;BME280;63138;55.082;38.804;2023-10-13T14:33:59;99542.19;;;10.57;81.93
74631;BME280;63138;55.082;38.804;2023-10-13T14:36:25;99550.41;;;10.49;82.58
74631;BME280;63138;55.082;38.804;2023-10-13T14:38:56;99545.06;;;10.41;83.54
74631;BME280;63138;55.082;38.804;2023-10-13T14:41:22;99562.25;;;10.33;84.01
74631;BME280;63138;55.082;38.804;2023-10-13T14:43:48;99556.03;;;10.24;84.60
74631;BME280;63138;55.082;38.804;2023-10-13T14:46:33;99566.78;;;10.18;85.50
74631;BME280;63138;55.082;38.804;2023-10-13T14:49:02;99563.97;;;10.11;86.70
74631;BME280;63138;55.082;38.804;2023-10-13T14:51:31;99573.50;;;10.07;86.96
74631;BME280;63138;55.082;38.804;2023-10-13T14:53:58;99576.09;;;10.00;87.68
74631;BME280;63138;55.082;38.804;2023-10-13T14:56:26;99577.66;;;9.94;88.23
74631;BME280;63138;55.082;38.804;2023-10-13T14:58:55;99578.56;;;9.87;89.12
74631;BME280;63138;55.082;38.804;2023-10-13T15:01:23;99582.28;;;9.86;89.80
74631;BME280;63138;55.082;38.804;2023-10-13T15:03:53;99585.19;;;9.84;90.05
74631;BME280;63138;55.082;38.804;2023-10-13T15:06:25;99592.31;;;9.85;90.33
74631;BME280;63138;55.082;38.804;2023-10-13T15:09:11;99602.19;;;9.78;90.97
74631;BME280;63138;55.082;38.804;2023-10-13T15:11:37;99606.25;;;9.74;91.27
74631;BME280;63138;55.082;38.804;2023-10-13T15:14:04;99603.28;;;9.69;92.01
74631;BME280;63138;55.082;38.804;2023-10-13T15:16:32;99606.69;;;9.63;92.45
74631;BME280;63138;55.082;38.804;2023-10-13T15:18:59;99620.22;;;9.63;92.89
74631;BME280;63138;55.082;38.804;2023-10-13T15:21:27;99612.66;;;9.58;93.09
74631;BME280;63138;55.082;38.804;2023-10-13T15:24:01;99622.63;;;9.57;93.27
74631;BME280;63138;55.082;38.804;2023-10-13T15:26:40;99630.59;;;9.59;93.91
74631;BME280;63138;55.082;38.804;2023-10-13T15:29:11;99631.81;;;9.56;94.08
74631;BME280;63138;55.082;38.804;2023-10-13T15:31:38;99631.16;;;9.46;94.26
74631;BME280;63138;55.082;38.804;2023-10-13T15:34:12;99648.75;;;9.50;94.48
74631;BME280;63138;55.082;38.804;2023-10-13T15:36:59;99652.00;;;9.46;95.01
74631;BME280;63138;55.082;38.804;2023-10-13T15:39:25;99650.31;;;9.45;95.22
74631;BME280;63138;55.082;38.804;2023-10-13T15:41:57;99656.06;;;9.42;95.75
74631;BME280;63138;55.082;38.804;2023-10-13T15:44:28;99643.25;;;9.35;96.06
74631;BME280;63138;55.082;38.804;2023-10-13T15:46:58;99658.00;;;9.33;97.66
74631;BME280;63138;55.082;38.804;2023-10-13T15:49:29;99661.06;;;9.30;98.19
74631;BME280;63138;55.082;38.804;2023-10-13T15:51:55;99657.00;;;9.26;98.82
74631;BME280;63138;55.082;38.804;2023-10-13T15:54:25;99647.72;;;9.20;99.09
74631;BME280;63138;55.082;38.804;2023-10-13T15:56:51;99653.16;;;9.20;99.73
74631;BME280;63138;55.082;38.804;2023-10-13T15:59:17;99651.94;;;9.14;100.00
74631;BME280;63138;55.082;38.804;2023-10-13T16:01:43;99655.38;;;9.08;100.00
74631;BME280;63138;55.082;38.804;2023-10-13T16:04:12;99647.75;;;9.04;100.00
74631;BME280;63138;55.082;38.804;2023-10-13T16:06:48;99650.16;;;8.98;100.00
74631;BME280;63138;55.082;38.804;2023-10-13T16:09:19;99654.38;;;8.93;100.00
74631;BME280;63138;55.082;38.804;2023-10-13T16:11:50;99658.63;;;8.87;100.00
74631;BME280;63138;55.082;38.804;2023-10-13T16:14:17;99666.63;;;8.80;100.00
74631;BME280;63138;55.082;38.804;2023-10-13T16:16:46;99656.78;;;8.79;100.00
74631;BME280;63138;55.082;38.804;2023-10-13T16:19:17;99658.84;;;8.77;100.00
74631;BME280;63138;55.082;38.804;2023-10-13T16:21:47;99662.72;;;8.75;100.00
74631;BME280;63138;55.082;38.804;2023-10-13T16:24:13;99670.53;;;8.70;100.00
74631;BME280;63138;55.082;38.804;2023-10-13T16:26:49;99671.38;;;8.62;100.00
74631;BME280;63138;55.082;38.804;2023-10-13T16:29:19;99668.31;;;8.57;100.00
74631;BME280;63138;55.082;38.804;2023-10-13T16:31:49;99681.03;;;8.48;100.00
74631;BME280;63138;55.082;38.804;2023-10-13T16:34:16;99674.41;;;8.42;100.00
74631;BME280;63138;55.082;38.804;2023-10-13T16:36:44;99672.38;;;8.36;100.00
74631;BME280;63138;55.082;38.804;2023-10-13T16:39:13;99688.25;;;8.31;100.00
74631;BME280;63138;55.082;38.804;2023-10-13T16:41:42;99691.28;;;8.28;100.00
74631;BME280;63138;55.082;38.804;2023-10-13T16:44:11;99693.69;;;8.23;100.00
74631;BME280;63138;55.082;38.804;2023-10-13T16:46:38;99701.09;;;8.21;100.00
74631;BME280;63138;55.082;38.804;2023-10-13T16:49:05;99696.34;;;8.15;100.00
74631;BME280;63138;55.082;38.804;2023-10-13T16:51:33;99692.47;;;8.09;100.00
74631;BME280;63138;55.082;38.804;2023-10-13T16:54:00;99700.06;;;8.06;100.00
74631;BME280;63138;55.082;38.804;2023-10-13T16:56:47;99696.84;;;8.02;100.00
74631;BME280;63138;55.082;38.804;2023-10-13T16:59:13;99691.56;;;7.92;100.00
74631;BME280;63138;55.082;38.804;2023-10-13T17:01:40;99695.81;;;7.95;100.00
74631;BME280;63138;55.082;38.804;2023-10-13T17:04:06;99700.72;;;7.91;100.00
74631;BME280;63138;55.082;38.804;2023-10-13T17:06:33;99701.53;;;7.83;100.00
74631;BME280;63138;55.082;38.804;2023-10-13T17:09:01;99702.53;;;7.82;100.00
74631;BME280;63138;55.082;38.804;2023-10-13T17:11:30;99704.22;;;7.75;100.00
74631;BME280;63138;55.082;38.804;2023-10-13T17:13:56;99712.31;;;7.75;100.00
74631;BME280;63138;55.082;38.804;2023-10-13T17:16:22;99716.88;;;7.75;100.00
74631;BME280;63138;55.082;38.804;2023-10-13T17:18:50;99716.38;;;7.71;100.00
74631;BME280;63138;55.082;38.804;2023-10-13T17:21:18;99711.44;;;7.66;100.00
74631;BME280;63138;55.082;38.804;2023-10-13T17:23:49;99719.03;;;7.63;100.00
74631;BME280;63138;55.082;38.804;2023-10-13T17:26:21;99715.66;;;7.61;100.00
74631;BME280;63138;55.082;38.804;2023-10-13T17:28:54;99725.94;;;7.57;100.00
74631;BME280;63138;55.082;38.804;2023-10-13T17:31:28;99728.63;;;7.57;100.00
74631;BME280;63138;55.082;38.804;2023-10-13T17:33:54;99731.66;;;7.54;100.00
74631;BME280;63138;55.082;38.804;2023-10-13T17:36:24;99736.38;;;7.52;100.00
74631;BME280;63138;55.082;38.804;2023-10-13T17:38:52;99735.69;;;7.50;100.00
74631;BME280;63138;55.082;38.804;2023-10-13T17:41:21;99740.59;;;7.46;100.00
74631;BME280;63138;55.082;38.804;2023-10-13T17:43:51;99734.34;;;7.46;100.00
74631;BME280;63138;55.082;38.804;2023-10-13T17:46:17;99738.56;;;7.49;100.00
74631;BME280;63138;55.082;38.804;2023-10-13T17:48:46;99742.44;;;7.46;100.00
74631;BME280;63138;55.082;38.804;2023-10-13T17:51:13;99748.84;;;7.45;100.00
74631;BME280;63138;55.082;38.804;2023-10-13T17:53:42;99748.31;;;7.41;100.00
74631;BME280;63138;55.082;38.804;2023-10-13T17:56:12;99756.06;;;7.36;100.00
74631;BME280;63138;55.082;38.804;2023-10-13T17:58:45;99754.38;;;7.35;100.00
74631;BME280;63138;55.082;38.804;2023-10-13T18:01:15;99760.94;;;7.33;100.00
74631;BME280;63138;55.082;38.804;2023-10-13T18:03:50;99755.50;;;7.24;100.00
74631;BME280;63138;55.082;38.804;2023-10-13T18:06:20;99756.13;;;7.18;100.00
74631;BME280;63138;55.082;38.804;2023-10-13T18:08:48;99752.06;;;7.14;100.00
74631;BME280;63138;55.082;38.804;2023-10-13T18:11:15;99754.72;;;7.06;100.00
74631;BME280;63138;55.082;38.804;2023-10-13T18:13:45;99762.97;;;7.04;100.00
74631;BME280;63138;55.082;38.804;2023-10-13T18:16:16;99763.44;;;7.00;100.00
74631;BME280;63138;55.082;38.804;2023-10-13T18:18:50;99757.81;;;6.93;100.00
74631;BME280;63138;55.082;38.804;2023-10-13T18:21:16;99761.69;;;6.91;100.00
74631;BME280;63138;55.082;38.804;2023-10-13T18:23:46;99763.69;;;6.88;100.00
74631;BME280;63138;55.082;38.804;2023-10-13T18:26:12;99761.47;;;6.84;100.00
74631;BME280;63138;55.082;38.804;2023-10-13T18:28:41;99755.53;;;6.80;100.00
74631;BME280;63138;55.082;38.804;2023-10-13T18:31:07;99758.38;;;6.79;100.00
74631;BME280;63138;55.082;38.804;2023-10-13T18:33:38;99760.09;;;6.80;100.00
74631;BME280;63138;55.082;38.804;2023-10-13T18:36:15;99762.78;;;6.80;100.00
74631;BME280;63138;55.082;38.804;2023-10-13T18:38:48;99761.78;;;6.81;100.00
74631;BME280;63138;55.082;38.804;2023-10-13T18:41:17;99766.31;;;6.80;100.00
74631;BME280;63138;55.082;38.804;2023-10-13T18:43:48;99765.03;;;6.84;100.00
74631;BME280;63138;55.082;38.804;2023-10-13T18:46:20;99765.88;;;6.85;100.00
74631;BME280;63138;55.082;38.804;2023-10-13T18:48:53;99780.19;;;6.85;100.00
74631;BME280;63138;55.082;38.804;2023-10-13T18:51:27;99782.06;;;6.85;100.00
74631;BME280;63138;55.082;38.804;2023-10-13T18:53:54;99787.59;;;6.83;100.00
74631;BME280;63138;55.082;38.804;2023-10-13T18:56:23;99787.91;;;6.80;100.00
74631;BME280;63138;55.082;38.804;2023-10-13T18:58:52;99781.81;;;6.78;100.00
74631;BME280;63138;55.082;38.804;2023-10-13T19:01:23;99789.09;;;6.78;100.00
74631;BME280;63138;55.082;38.804;2023-10-13T19:03:54;99793.78;;;6.76;100.00
74631;BME280;63138;55.082;38.804;2023-10-13T19:06:22;99796.34;;;6.77;100.00
74631;BME280;63138;55.082;38.804;2023-10-13T19:08:48;99791.25;;;6.74;100.00
74631;BME280;63138;55.082;38.804;2023-10-13T19:11:18;99798.84;;;6.79;100.00
74631;BME280;63138;55.082;38.804;2023-10-13T19:13:46;99796.66;;;6.74;100.00
74631;BME280;63138;55.082;38.804;2023-10-13T19:16:21;99785.53;;;6.77;100.00
74631;BME280;63138;55.082;38.804;2023-10-13T19:18:51;99785.91;;;6.82;100.00
74631;BME280;63138;55.082;38.804;2023-10-13T19:21:18;99790.84;;;6.87;100.00
74631;BME280;63138;55.082;38.804;2023-10-13T19:23:46;99794.38;;;6.87;100.00
74631;BME280;63138;55.082;38.804;2023-10-13T19:26:20;99790.31;;;6.83;100.00
74631;BME280;63138;55.082;38.804;2023-10-13T19:28:57;99787.91;;;6.80;100.00
74631;BME280;63138;55.082;38.804;2023-10-13T19:31:28;99789.31;;;6.84;100.00
74631;BME280;63138;55.082;38.804;2023-10-13T19:33:57;99802.09;;;6.82;100.00
74631;BME280;63138;55.082;38.804;2023-10-13T19:36:28;99801.56;;;6.79;100.00
74631;BME280;63138;55.082;38.804;2023-10-13T19:38:57;99810.66;;;6.78;100.00
74631;BME280;63138;55.082;38.804;2023-10-13T19:41:25;99808.13;;;6.76;100.00
74631;BME280;63138;55.082;38.804;2023-10-13T19:43:56;99810.97;;;6.75;100.00
74631;BME280;63138;55.082;38.804;2023-10-13T19:46:34;99809.59;;;6.70;100.00
74631;BME280;63138;55.082;38.804;2023-10-13T19:49:03;99821.53;;;6.68;100.00
74631;BME280;63138;55.082;38.804;2023-10-13T19:51:29;99812.06;;;6.64;100.00
74631;BME280;63138;55.082;38.804;2023-10-13T19:54:20;99815.06;;;6.61;100.00
74631;BME280;63138;55.082;38.804;2023-10-13T19:56:46;99817.06;;;6.59;100.00
74631;BME280;63138;55.082;38.804;2023-10-13T19:59:12;99816.06;;;6.60;100.00
74631;BME280;63138;55.082;38.804;2023-10-13T20:01:39;99814.69;;;6.56;100.00
74631;BME280;63138;55.082;38.804;2023-10-13T20:04:07;99816.53;;;6.55;100.00
74631;BME280;63138;55.082;38.804;2023-10-13T20:06:32;99825.09;;;6.50;100.00
74631;BME280;63138;55.082;38.804;2023-10-13T20:08:59;99815.28;;;6.49;100.00
74631;BME280;63138;55.082;38.804;2023-10-13T20:11:34;99824.81;;;6.54;100.00
74631;BME280;63138;55.082;38.804;2023-10-13T20:14:01;99820.69;;;6.49;100.00
74631;BME280;63138;55.082;38.804;2023-10-13T20:16:27;99812.75;;;6.48;100.00
74631;BME280;63138;55.082;38.804;2023-10-13T20:18:56;99815.44;;;6.48;100.00
74631;BME280;63138;55.082;38.804;2023-10-13T20:21:29;99807.97;;;6.42;100.00
74631;BME280;63138;55.082;38.804;2023-10-13T20:23:56;99816.63;;;6.45;100.00
74631;BME280;63138;55.082;38.804;2023-10-13T20:26:30;99817.94;;;6.41;100.00
74631;BME280;63138;55.082;38.804;2023-10-13T20:28:57;99821.22;;;6.35;100.00
74631;BME280;63138;55.082;38.804;2023-10-13T20:31:23;99820.53;;;6.33;100.00
74631;BME280;63138;55.082;38.804;2023-10-13T20:33:48;99818.59;;;6.25;100.00
74631;BME280;63138;55.082;38.804;2023-10-13T20:36:15;99826.44;;;6.19;100.00
74631;BME280;63138;55.082;38.804;2023-10-13T20:38:44;99823.97;;;6.07;100.00
74631;BME280;63138;55.082;38.804;2023-10-13T20:41:17;99818.59;;;5.98;100.00
74631;BME280;63138;55.082;38.804;2023-10-13T20:43:52;99815.31;;;5.94;100.00
74631;BME280;63138;55.082;38.804;2023-10-13T20:46:20;99821.19;;;5.89;100.00
74631;BME280;63138;55.082;38.804;2023-10-13T20:48:47;99807.03;;;5.78;100.00
74631;BME280;63138;55.082;38.804;2023-10-13T20:51:14;99820.66;;;5.76;100.00
74631;BME280;63138;55.082;38.804;2023-10-13T20:53:41;99825.66;;;5.71;100.00
74631;BME280;63138;55.082;38.804;2023-10-13T20:56:08;99828.94;;;5.65;100.00
74631;BME280;63138;55.082;38.804;2023-10-13T20:58:40;99833.22;;;5.58;100.00
74631;BME280;63138;55.082;38.804;2023-10-13T21:01:22;99830.13;;;5.52;100.00
74631;BME280;63138;55.082;38.804;2023-10-13T21:03:49;99826.03;;;5.48;100.00
74631;BME280;63138;55.082;38.804;2023-10-13T21:06:15;99834.94;;;5.49;100.00
74631;BME280;63138;55.082;38.804;2023-10-13T21:08:45;99833.25;;;5.48;100.00
74631;BME280;63138;55.082;38.804;2023-10-13T21:11:13;99832.84;;;5.43;100.00
74631;BME280;63138;55.082;38.804;2023-10-13T21:13:39;99848.00;;;5.44;100.00
74631;BME280;63138;55.082;38.804;2023-10-13T21:16:06;99836.66;;;5.40;100.00
74631;BME280;63138;55.082;38.804;2023-10-13T21:18:35;99836.09;;;5.36;100.00
74631;BME280;63138;55.082;38.804;2023-10-13T21:21:14;99837.81;;;5.38;100.00
74631;BME280;63138;55.082;38.804;2023-10-13T21:23:47;99843.19;;;5.38;100.00
74631;BME280;63138;55.082;38.804;2023-10-13T21:26:22;99843.34;;;5.36;100.00
74631;BME280;63138;55.082;38.804;2023-10-13T21:28:48;99834.72;;;5.32;100.00
74631;BME280;63138;55.082;38.804;2023-10-13T21:31:18;99848.19;;;5.32;100.00
74631;BME280;63138;55.082;38.804;2023-10-13T21:33:47;99840.69;;;5.26;100.00
74631;BME280;63138;55.082;38.804;2023-10-13T21:36:13;99837.59;;;5.21;100.00
74631;BME280;63138;55.082;38.804;2023-10-13T21:38:44;99833.63;;;5.15;100.00
74631;BME280;63138;55.082;38.804;2023-10-13T21:41:11;99837.28;;;5.14;100.00
74631;BME280;63138;55.082;38.804;2023-10-13T21:43:44;99849.91;;;5.14;100.00
74631;BME280;63138;55.082;38.804;2023-10-13T21:46:12;99844.13;;;5.09;100.00
74631;BME280;63138;55.082;38.804;2023-10-13T21:49:06;99851.47;;;5.07;100.00
74631;BME280;63138;55.082;38.804;2023-10-13T21:51:32;99858.00;;;5.04;100.00
74631;BME280;63138;55.082;38.804;2023-10-13T21:53:58;99852.91;;;5.01;100.00
74631;BME280;63138;55.082;38.804;2023-10-13T21:56:25;99849.53;;;4.99;100.00